sensor_id;sensor_type;location;lat;lon;timestamp;pressure;altitude;pressure_sealevel;temperature;humidity
18858;BME280;9558;50.178;8.370;2023-05-13T00:01:53;98421.28;;;9.74;100.00
18858;BME280;9558;50.178;8.370;2023-05-13T00:04:41;98419.03;;;9.79;100.00
18858;BME280;9558;50.178;8.370;2023-05-13T00:07:28;98411.91;;;9.81;100.00
18858;BME280;9558;50.178;8.370;2023-05-13T00:10:15;98408.50;;;9.89;100.00
18858;BME280;9558;50.178;8.370;2023-05-13T00:13:01;98412.56;;;9.92;100.00
18858;BME280;9558;50.178;8.370;2023-05-13T00:15:48;98412.22;;;9.95;100.00
18858;BME280;9558;50.178;8.370;2023-05-13T00:18:35;98403.16;;;9.99;100.00
18858;BME280;9558;50.178;8.370;2023-05-13T00:21:23;98406.22;;;10.02;100.00
18858;BME280;9558;50.178;8.370;2023-05-13T00:24:10;98404.13;;;10.06;100.00
18858;BME280;9558;50.178;8.370;2023-05-13T00:26:57;98408.13;;;10.09;100.00
18858;BME280;9558;50.178;8.370;2023-05-13T00:29:43;98407.97;;;10.10;100.00
18858;BME280;9558;50.178;8.370;2023-05-13T00:32:30;98409.41;;;10.13;100.00
18858;BME280;9558;50.178;8.370;2023-05-13T00:35:17;98410.06;;;10.15;100.00
18858;BME280;9558;50.178;8.370;2023-05-13T00:38:06;98413.94;;;10.19;100.00
18858;BME280;9558;50.178;8.370;2023-05-13T00:40:52;98417.94;;;10.21;100.00
18858;BME280;9558;50.178;8.370;2023-05-13T00:43:39;98424.06;;;10.29;100.00
18858;BME280;9558;50.178;8.370;2023-05-13T00:46:29;98425.69;;;10.30;100.00
18858;BME280;9558;50.178;8.370;2023-05-13T00:49:16;98421.00;;;10.33;100.00
18858;BME280;9558;50.178;8.370;2023-05-13T00:52:04;98423.44;;;10.35;100.00
18858;BME280;9558;50.178;8.370;2023-05-13T00:54:52;98418.72;;;10.38;100.00
18858;BME280;9558;50.178;8.370;2023-05-13T00:57:39;98425.19;;;10.43;100.00
18858;BME280;9558;50.178;8.370;2023-05-13T01:00:26;98418.09;;;10.45;100.00
18858;BME280;9558;50.178;8.370;2023-05-13T01:03:20;98416.91;;;10.47;100.00
18858;BME280;9558;50.178;8.370;2023-05-13T01:06:14;98405.09;;;10.53;100.00
18858;BME280;9558;50.178;8.370;2023-05-13T01:09:14;98408.78;;;10.59;100.00
18858;BME280;9558;50.178;8.370;2023-05-13T01:12:09;98416.22;;;10.62;100.00
18858;BME280;9558;50.178;8.370;2023-05-13T01:14:59;98420.53;;;10.69;100.00
18858;BME280;9558;50.178;8.370;2023-05-13T01:17:55;98411.81;;;10.70;100.00
18858;BME280;9558;50.178;8.370;2023-05-13T01:20:43;98416.47;;;10.75;100.00
18858;BME280;9558;50.178;8.370;2023-05-13T01:23:32;98418.28;;;10.75;100.00
18858;BME280;9558;50.178;8.370;2023-05-13T01:26:19;98421.66;;;10.75;100.00
18858;BME280;9558;50.178;8.370;2023-05-13T01:29:06;98419.69;;;10.77;100.00
18858;BME280;9558;50.178;8.370;2023-05-13T01:31:54;98421.31;;;10.78;100.00
18858;BME280;9558;50.178;8.370;2023-05-13T01:34:41;98430.00;;;10.85;100.00
18858;BME280;9558;50.178;8.370;2023-05-13T01:37:29;98423.22;;;10.84;100.00
18858;BME280;9558;50.178;8.370;2023-05-13T01:40:17;98426.44;;;10.86;100.00
18858;BME280;9558;50.178;8.370;2023-05-13T01:43:04;98422.53;;;10.91;100.00
18858;BME280;9558;50.178;8.370;2023-05-13T01:45:51;98424.47;;;10.88;100.00
18858;BME280;9558;50.178;8.370;2023-05-13T01:48:38;98429.31;;;10.92;100.00
18858;BME280;9558;50.178;8.370;2023-05-13T01:51:24;98428.00;;;10.96;100.00
18858;BME280;9558;50.178;8.370;2023-05-13T01:54:11;98430.59;;;10.96;100.00
18858;BME280;9558;50.178;8.370;2023-05-13T01:56:59;98426.69;;;11.00;100.00
18858;BME280;9558;50.178;8.370;2023-05-13T01:59:46;98427.03;;;10.97;100.00
18858;BME280;9558;50.178;8.370;2023-05-13T02:02:33;98425.06;;;10.99;100.00
18858;BME280;9558;50.178;8.370;2023-05-13T02:05:20;98423.47;;;10.98;100.00
18858;BME280;9558;50.178;8.370;2023-05-13T02:08:07;98430.25;;;10.99;100.00
18858;BME280;9558;50.178;8.370;2023-05-13T02:10:54;98425.72;;;11.01;100.00
18858;BME280;9558;50.178;8.370;2023-05-13T02:13:42;98420.88;;;10.98;100.00
18858;BME280;9558;50.178;8.370;2023-05-13T02:16:30;98419.88;;;10.99;100.00
18858;BME280;9558;50.178;8.370;2023-05-13T02:19:17;98421.84;;;10.97;100.00
18858;BME280;9558;50.178;8.370;2023-05-13T02:22:04;98421.84;;;10.97;100.00
18858;BME280;9558;50.178;8.370;2023-05-13T02:24:50;98419.09;;;10.98;100.00
18858;BME280;9558;50.178;8.370;2023-05-13T02:27:37;98416.66;;;10.97;100.00
18858;BME280;9558;50.178;8.370;2023-05-13T02:30:26;98421.84;;;10.97;100.00
18858;BME280;9558;50.178;8.370;2023-05-13T02:33:13;98417.03;;;10.94;100.00
18858;BME280;9558;50.178;8.370;2023-05-13T02:35:59;98419.63;;;10.94;100.00
18858;BME280;9558;50.178;8.370;2023-05-13T02:38:46;98413.94;;;10.90;100.00
18858;BME280;9558;50.178;8.370;2023-05-13T02:41:33;98418.84;;;10.85;100.00
18858;BME280;9558;50.178;8.370;2023-05-13T02:44:20;98414.81;;;10.82;100.00
18858;BME280;9558;50.178;8.370;2023-05-13T02:47:08;98417.75;;;10.79;100.00
18858;BME280;9558;50.178;8.370;2023-05-13T02:49:55;98416.66;;;10.74;100.00
18858;BME280;9558;50.178;8.370;2023-05-13T02:52:42;98408.56;;;10.68;100.00
18858;BME280;9558;50.178;8.370;2023-05-13T02:55:29;98408.75;;;10.67;100.00
18858;BME280;9558;50.178;8.370;2023-05-13T02:58:16;98399.69;;;10.63;100.00
18858;BME280;9558;50.178;8.370;2023-05-13T03:01:02;98410.22;;;10.61;100.00
18858;BME280;9558;50.178;8.370;2023-05-13T03:03:51;98416.22;;;10.62;100.00
18858;BME280;9558;50.178;8.370;2023-05-13T03:06:37;98416.22;;;10.62;100.00
18858;BME280;9558;50.178;8.370;2023-05-13T03:09:24;98420.75;;;10.60;100.00
18858;BME280;9558;50.178;8.370;2023-05-13T03:12:11;98413.78;;;10.60;100.00
18858;BME280;9558;50.178;8.370;2023-05-13T03:14:58;98418.00;;;10.61;100.00
18858;BME280;9558;50.178;8.370;2023-05-13T03:17:45;98420.41;;;10.63;100.00
18858;BME280;9558;50.178;8.370;2023-05-13T03:20:33;98423.16;;;10.61;100.00
18858;BME280;9558;50.178;8.370;2023-05-13T03:23:19;98417.81;;;10.63;100.00
18858;BME280;9558;50.178;8.370;2023-05-13T03:26:06;98421.22;;;10.63;100.00
18858;BME280;9558;50.178;8.370;2023-05-13T03:28:53;98418.47;;;10.65;100.00
18858;BME280;9558;50.178;8.370;2023-05-13T03:31:40;98420.06;;;10.66;100.00
18858;BME280;9558;50.178;8.370;2023-05-13T03:34:26;98429.16;;;10.62;100.00
18858;BME280;9558;50.178;8.370;2023-05-13T03:37:14;98427.56;;;10.61;100.00
18858;BME280;9558;50.178;8.370;2023-05-13T03:40:01;98431.09;;;10.60;100.00
18858;BME280;9558;50.178;8.370;2023-05-13T03:42:49;98430.13;;;10.61;100.00
18858;BME280;9558;50.178;8.370;2023-05-13T03:45:35;98425.94;;;10.60;100.00
18858;BME280;9558;50.178;8.370;2023-05-13T03:48:22;98428.50;;;10.60;100.00
18858;BME280;9558;50.178;8.370;2023-05-13T03:51:09;98443.88;;;10.61;100.00
18858;BME280;9558;50.178;8.370;2023-05-13T03:53:57;98435.13;;;10.62;100.00
18858;BME280;9558;50.178;8.370;2023-05-13T03:56:44;98434.34;;;10.62;100.00
18858;BME280;9558;50.178;8.370;2023-05-13T03:59:31;98435.94;;;10.63;100.00
18858;BME280;9558;50.178;8.370;2023-05-13T04:02:17;98441.47;;;10.60;100.00
18858;BME280;9558;50.178;8.370;2023-05-13T04:05:06;98442.41;;;10.59;100.00
18858;BME280;9558;50.178;8.370;2023-05-13T04:07:53;98438.88;;;10.60;100.00
18858;BME280;9558;50.178;8.370;2023-05-13T04:10:42;98444.69;;;10.62;100.00
18858;BME280;9558;50.178;8.370;2023-05-13T04:13:29;98448.25;;;10.61;100.00
18858;BME280;9558;50.178;8.370;2023-05-13T04:16:15;98444.03;;;10.60;100.00
18858;BME280;9558;50.178;8.370;2023-05-13T04:19:02;98446.47;;;10.61;100.00
18858;BME280;9558;50.178;8.370;2023-05-13T04:21:49;98437.56;;;10.64;100.00
18858;BME280;9558;50.178;8.370;2023-05-13T04:24:36;98445.94;;;10.66;100.00
18858;BME280;9558;50.178;8.370;2023-05-13T04:27:24;98443.66;;;10.71;100.00
18858;BME280;9558;50.178;8.370;2023-05-13T04:30:11;98448.16;;;10.77;100.00
18858;BME280;9558;50.178;8.370;2023-05-13T04:32:58;98450.44;;;10.80;100.00
18858;BME280;9558;50.178;8.370;2023-05-13T04:35:45;98444.75;;;10.85;100.00
18858;BME280;9558;50.178;8.370;2023-05-13T04:38:32;98449.41;;;10.89;100.00
18858;BME280;9558;50.178;8.370;2023-05-13T04:41:18;98450.38;;;10.88;100.00
18858;BME280;9558;50.178;8.370;2023-05-13T04:44:07;98454.25;;;10.93;100.00
18858;BME280;9558;50.178;8.370;2023-05-13T04:46:53;98453.91;;;10.96;100.00
18858;BME280;9558;50.178;8.370;2023-05-13T04:49:40;98450.66;;;11.02;100.00
18858;BME280;9558;50.178;8.370;2023-05-13T04:52:27;98455.81;;;11.02;100.00
18858;BME280;9558;50.178;8.370;2023-05-13T04:55:14;98458.34;;;11.10;100.00
18858;BME280;9558;50.178;8.370;2023-05-13T04:58:01;98463.53;;;11.10;100.00
18858;BME280;9558;50.178;8.370;2023-05-13T05:00:49;98458.03;;;11.13;100.00
18858;BME280;9558;50.178;8.370;2023-05-13T05:03:36;98460.88;;;11.18;100.00
18858;BME280;9558;50.178;8.370;2023-05-13T05:06:23;98457.34;;;11.19;100.00
18858;BME280;9558;50.178;8.370;2023-05-13T05:09:09;98465.41;;;11.24;100.00
18858;BME280;9558;50.178;8.370;2023-05-13T05:11:56;98466.66;;;11.29;100.00
18858;BME280;9558;50.178;8.370;2023-05-13T05:14:43;98469.53;;;11.34;100.00
18858;BME280;9558;50.178;8.370;2023-05-13T05:17:31;98471.25;;;11.41;100.00
18858;BME280;9558;50.178;8.370;2023-05-13T05:20:18;98472.69;;;11.44;100.00
18858;BME280;9558;50.178;8.370;2023-05-13T05:23:05;98475.59;;;11.49;100.00
18858;BME280;9558;50.178;8.370;2023-05-13T05:25:53;98482.31;;;11.58;100.00
18858;BME280;9558;50.178;8.370;2023-05-13T05:28:41;98480.81;;;11.64;100.00
18858;BME280;9558;50.178;8.370;2023-05-13T05:31:28;98482.56;;;11.72;100.00
18858;BME280;9558;50.178;8.370;2023-05-13T05:34:16;98485.06;;;11.80;100.00
18858;BME280;9558;50.178;8.370;2023-05-13T05:37:03;98488.41;;;11.89;100.00
18858;BME280;9558;50.178;8.370;2023-05-13T05:39:50;98495.94;;;11.99;100.00
18858;BME280;9558;50.178;8.370;2023-05-13T05:42:37;98490.34;;;12.10;100.00
18858;BME280;9558;50.178;8.370;2023-05-13T05:45:24;98489.91;;;12.21;100.00
18858;BME280;9558;50.178;8.370;2023-05-13T05:48:11;98484.28;;;12.33;100.00
18858;BME280;9558;50.178;8.370;2023-05-13T05:50:59;98495.19;;;12.43;100.00
18858;BME280;9558;50.178;8.370;2023-05-13T05:53:46;98492.25;;;12.61;100.00
18858;BME280;9558;50.178;8.370;2023-05-13T05:56:33;98497.78;;;12.73;100.00
18858;BME280;9558;50.178;8.370;2023-05-13T05:59:19;98491.56;;;12.89;100.00
18858;BME280;9558;50.178;8.370;2023-05-13T06:02:06;98504.56;;;13.04;100.00
18858;BME280;9558;50.178;8.370;2023-05-13T06:04:53;98495.91;;;13.18;100.00
18858;BME280;9558;50.178;8.370;2023-05-13T06:07:41;98499.66;;;13.30;100.00
18858;BME280;9558;50.178;8.370;2023-05-13T06:10:28;98503.66;;;13.48;100.00
18858;BME280;9558;50.178;8.370;2023-05-13T06:13:15;98503.75;;;13.61;100.00
18858;BME280;9558;50.178;8.370;2023-05-13T06:16:02;98508.09;;;13.76;100.00
18858;BME280;9558;50.178;8.370;2023-05-13T06:18:48;98506.03;;;13.93;100.00
18858;BME280;9558;50.178;8.370;2023-05-13T06:21:35;98508.19;;;14.11;100.00
18858;BME280;9558;50.178;8.370;2023-05-13T06:24:23;98509.19;;;14.45;100.00
18858;BME280;9558;50.178;8.370;2023-05-13T06:27:10;98516.31;;;14.64;100.00
18858;BME280;9558;50.178;8.370;2023-05-13T06:29:57;98514.47;;;14.93;100.00
18858;BME280;9558;50.178;8.370;2023-05-13T06:32:44;98514.00;;;15.51;100.00
18858;BME280;9558;50.178;8.370;2023-05-13T06:35:31;98509.66;;;15.79;100.00
18858;BME280;9558;50.178;8.370;2023-05-13T06:38:18;98510.28;;;16.01;100.00
18858;BME280;9558;50.178;8.370;2023-05-13T06:41:06;98505.63;;;16.23;98.41
18858;BME280;9558;50.178;8.370;2023-05-13T06:43:53;98506.06;;;16.79;96.50
18858;BME280;9558;50.178;8.370;2023-05-13T06:46:39;98509.38;;;17.13;94.85
18858;BME280;9558;50.178;8.370;2023-05-13T06:49:26;98510.22;;;17.70;92.12
18858;BME280;9558;50.178;8.370;2023-05-13T06:52:13;98516.75;;;18.37;84.07
18858;BME280;9558;50.178;8.370;2023-05-13T06:55:00;98511.28;;;19.12;82.56
18858;BME280;9558;50.178;8.370;2023-05-13T06:57:48;98515.81;;;19.90;76.48
18858;BME280;9558;50.178;8.370;2023-05-13T07:00:36;98508.56;;;20.56;74.32
18858;BME280;9558;50.178;8.370;2023-05-13T07:03:23;98510.13;;;21.21;74.54
18858;BME280;9558;50.178;8.370;2023-05-13T07:06:10;98504.81;;;21.79;68.50
18858;BME280;9558;50.178;8.370;2023-05-13T07:08:58;98511.38;;;22.33;63.62
18858;BME280;9558;50.178;8.370;2023-05-13T07:11:46;98515.44;;;22.85;67.18
18858;BME280;9558;50.178;8.370;2023-05-13T07:14:34;98500.44;;;23.40;62.97
18858;BME280;9558;50.178;8.370;2023-05-13T07:17:20;98503.06;;;24.00;60.42
18858;BME280;9558;50.178;8.370;2023-05-13T07:20:08;98506.22;;;24.49;55.55
18858;BME280;9558;50.178;8.370;2023-05-13T07:22:56;98504.28;;;24.93;44.94
18858;BME280;9558;50.178;8.370;2023-05-13T07:25:43;98496.16;;;25.25;45.97
18858;BME280;9558;50.178;8.370;2023-05-13T07:28:30;98503.59;;;25.69;48.37
18858;BME280;9558;50.178;8.370;2023-05-13T07:31:18;98512.84;;;25.98;45.95
18858;BME280;9558;50.178;8.370;2023-05-13T07:34:04;98501.91;;;26.35;45.76
18858;BME280;9558;50.178;8.370;2023-05-13T07:36:51;98502.88;;;26.60;43.87
18858;BME280;9558;50.178;8.370;2023-05-13T07:39:38;98502.28;;;26.84;44.08
18858;BME280;9558;50.178;8.370;2023-05-13T07:42:25;98497.88;;;27.03;38.41
18858;BME280;9558;50.178;8.370;2023-05-13T07:45:14;98500.72;;;27.17;38.41
18858;BME280;9558;50.178;8.370;2023-05-13T07:48:02;98504.00;;;27.44;37.99
18858;BME280;9558;50.178;8.370;2023-05-13T07:50:50;98501.63;;;27.76;39.21
18858;BME280;9558;50.178;8.370;2023-05-13T07:53:36;98506.78;;;27.92;37.61
18858;BME280;9558;50.178;8.370;2023-05-13T07:56:23;98498.78;;;27.97;35.49
18858;BME280;9558;50.178;8.370;2023-05-13T07:59:10;98513.69;;;27.98;35.69
18858;BME280;9558;50.178;8.370;2023-05-13T08:01:57;98499.22;;;28.09;36.33
18858;BME280;9558;50.178;8.370;2023-05-13T08:04:46;98505.78;;;28.17;36.12
18858;BME280;9558;50.178;8.370;2023-05-13T08:07:33;98499.75;;;28.06;36.14
18858;BME280;9558;50.178;8.370;2023-05-13T08:10:19;98506.03;;;28.21;34.25
18858;BME280;9558;50.178;8.370;2023-05-13T08:13:06;98510.69;;;28.29;35.28
18858;BME280;9558;50.178;8.370;2023-05-13T08:15:53;98502.25;;;28.46;35.94
18858;BME280;9558;50.178;8.370;2023-05-13T08:18:40;98514.16;;;28.78;35.56
18858;BME280;9558;50.178;8.370;2023-05-13T08:21:28;98500.03;;;28.77;34.55
18858;BME280;9558;50.178;8.370;2023-05-13T08:24:16;98506.84;;;28.40;34.90
18858;BME280;9558;50.178;8.370;2023-05-13T08:27:03;98510.66;;;27.46;34.80
18858;BME280;9558;50.178;8.370;2023-05-13T08:29:50;98502.38;;;26.53;36.94
18858;BME280;9558;50.178;8.370;2023-05-13T08:32:37;98507.59;;;25.57;37.27
18858;BME280;9558;50.178;8.370;2023-05-13T08:35:23;98508.72;;;24.72;37.83
18858;BME280;9558;50.178;8.370;2023-05-13T08:38:12;98510.84;;;23.84;41.05
18858;BME280;9558;50.178;8.370;2023-05-13T08:40:59;98504.94;;;23.12;43.05
18858;BME280;9558;50.178;8.370;2023-05-13T08:43:46;98506.00;;;22.44;44.96
18858;BME280;9558;50.178;8.370;2023-05-13T08:46:36;98502.88;;;21.91;47.00
18858;BME280;9558;50.178;8.370;2023-05-13T08:49:23;98502.59;;;21.42;47.31
18858;BME280;9558;50.178;8.370;2023-05-13T08:52:10;98513.47;;;20.88;48.03
18858;BME280;9558;50.178;8.370;2023-05-13T08:54:59;98502.66;;;20.49;49.03
18858;BME280;9558;50.178;8.370;2023-05-13T08:57:47;98509.31;;;20.16;49.97
18858;BME280;9558;50.178;8.370;2023-05-13T09:00:34;98506.47;;;19.94;51.87
18858;BME280;9558;50.178;8.370;2023-05-13T09:03:21;98506.91;;;19.79;52.71
18858;BME280;9558;50.178;8.370;2023-05-13T09:06:08;98505.94;;;19.73;53.29
18858;BME280;9558;50.178;8.370;2023-05-13T09:08:55;98503.81;;;19.82;53.26
18858;BME280;9558;50.178;8.370;2023-05-13T09:11:46;98511.72;;;19.94;52.38
18858;BME280;9558;50.178;8.370;2023-05-13T09:14:33;98500.28;;;20.00;53.68
18858;BME280;9558;50.178;8.370;2023-05-13T09:17:20;98501.66;;;20.14;52.72
18858;BME280;9558;50.178;8.370;2023-05-13T09:20:09;98498.94;;;20.21;49.16
18858;BME280;9558;50.178;8.370;2023-05-13T09:22:59;98497.22;;;20.27;51.03
18858;BME280;9558;50.178;8.370;2023-05-13T09:25:46;98492.84;;;20.32;50.80
18858;BME280;9558;50.178;8.370;2023-05-13T09:28:35;98501.53;;;20.33;50.69
18858;BME280;9558;50.178;8.370;2023-05-13T09:31:31;98487.63;;;20.20;52.06
18858;BME280;9558;50.178;8.370;2023-05-13T09:34:26;98493.66;;;20.33;53.17
18858;BME280;9558;50.178;8.370;2023-05-13T09:37:16;98483.25;;;20.38;53.82
18858;BME280;9558;50.178;8.370;2023-05-13T09:40:04;98480.16;;;20.41;52.30
18858;BME280;9558;50.178;8.370;2023-05-13T09:42:55;98468.81;;;20.52;52.16
18858;BME280;9558;50.178;8.370;2023-05-13T09:45:44;98476.25;;;20.55;51.56
18858;BME280;9558;50.178;8.370;2023-05-13T09:48:32;98480.47;;;20.57;51.85
18858;BME280;9558;50.178;8.370;2023-05-13T09:51:24;98487.31;;;20.58;52.40
18858;BME280;9558;50.178;8.370;2023-05-13T09:54:11;98475.22;;;20.57;50.76
18858;BME280;9558;50.178;8.370;2023-05-13T09:56:58;98479.78;;;20.61;52.04
18858;BME280;9558;50.178;8.370;2023-05-13T09:59:45;98475.88;;;20.64;51.07
18858;BME280;9558;50.178;8.370;2023-05-13T10:02:34;98479.22;;;20.71;51.86
18858;BME280;9558;50.178;8.370;2023-05-13T10:05:22;98488.34;;;20.68;51.04
18858;BME280;9558;50.178;8.370;2023-05-13T10:08:10;98476.66;;;20.64;50.44
18858;BME280;9558;50.178;8.370;2023-05-13T10:10:58;98465.00;;;20.60;49.71
18858;BME280;9558;50.178;8.370;2023-05-13T10:13:49;98483.19;;;20.62;50.21
18858;BME280;9558;50.178;8.370;2023-05-13T10:16:36;98480.72;;;20.55;49.18
18858;BME280;9558;50.178;8.370;2023-05-13T10:19:25;98468.81;;;20.52;49.11
18858;BME280;9558;50.178;8.370;2023-05-13T10:22:13;98465.25;;;20.59;51.29
18858;BME280;9558;50.178;8.370;2023-05-13T10:25:02;98468.69;;;20.71;52.33
18858;BME280;9558;50.178;8.370;2023-05-13T10:27:50;98471.41;;;20.76;50.36
18858;BME280;9558;50.178;8.370;2023-05-13T10:30:37;98468.88;;;20.81;49.77
18858;BME280;9558;50.178;8.370;2023-05-13T10:33:25;98471.50;;;20.81;50.56
18858;BME280;9558;50.178;8.370;2023-05-13T10:36:32;98466.34;;;20.86;50.48
18858;BME280;9558;50.178;8.370;2023-05-13T10:39:39;98461.09;;;20.86;49.92
18858;BME280;9558;50.178;8.370;2023-05-13T10:42:38;98459.47;;;20.85;50.52
18858;BME280;9558;50.178;8.370;2023-05-13T10:45:27;98449.13;;;20.96;51.57
18858;BME280;9558;50.178;8.370;2023-05-13T10:48:17;98451.78;;;20.96;51.48
18858;BME280;9558;50.178;8.370;2023-05-13T10:51:04;98450.91;;;21.07;50.14
18858;BME280;9558;50.178;8.370;2023-05-13T10:53:55;98457.56;;;21.10;48.87
18858;BME280;9558;50.178;8.370;2023-05-13T10:56:42;98456.28;;;21.12;50.13
18858;BME280;9558;50.178;8.370;2023-05-13T10:59:29;98457.47;;;21.21;49.91
18858;BME280;9558;50.178;8.370;2023-05-13T11:02:23;98445.81;;;21.17;50.63
18858;BME280;9558;50.178;8.370;2023-05-13T11:05:18;98444.91;;;21.23;48.83
18858;BME280;9558;50.178;8.370;2023-05-13T11:08:05;98442.72;;;21.20;48.83
18858;BME280;9558;50.178;8.370;2023-05-13T11:10:54;98434.59;;;21.22;49.26
18858;BME280;9558;50.178;8.370;2023-05-13T11:13:42;98439.16;;;21.27;48.06
18858;BME280;9558;50.178;8.370;2023-05-13T11:16:28;98436.69;;;21.37;48.80
18858;BME280;9558;50.178;8.370;2023-05-13T11:19:18;98429.75;;;21.48;48.13
18858;BME280;9558;50.178;8.370;2023-05-13T11:22:08;98423.19;;;21.50;48.72
18858;BME280;9558;50.178;8.370;2023-05-13T11:25:06;98423.94;;;21.63;47.67
18858;BME280;9558;50.178;8.370;2023-05-13T11:27:54;98414.19;;;21.63;45.83
18858;BME280;9558;50.178;8.370;2023-05-13T11:30:52;98413.41;;;21.63;43.15
18858;BME280;9558;50.178;8.370;2023-05-13T11:37:06;98415.53;;;21.66;43.88
18858;BME280;9558;50.178;8.370;2023-05-13T11:39:54;98427.59;;;21.62;42.50
18858;BME280;9558;50.178;8.370;2023-05-13T11:42:41;98420.66;;;21.55;45.38
18858;BME280;9558;50.178;8.370;2023-05-13T11:45:31;98415.28;;;21.50;45.26
18858;BME280;9558;50.178;8.370;2023-05-13T11:48:18;98418.41;;;21.47;46.14
18858;BME280;9558;50.178;8.370;2023-05-13T11:51:06;98415.72;;;21.42;46.95
18858;BME280;9558;50.178;8.370;2023-05-13T11:53:58;98415.53;;;21.32;47.06
18858;BME280;9558;50.178;8.370;2023-05-13T11:56:45;98418.88;;;21.27;45.42
18858;BME280;9558;50.178;8.370;2023-05-13T11:59:32;98423.19;;;21.16;44.66
18858;BME280;9558;50.178;8.370;2023-05-13T12:02:24;98422.81;;;20.96;45.92
18858;BME280;9558;50.178;8.370;2023-05-13T12:05:11;98422.06;;;20.83;49.77
18858;BME280;9558;50.178;8.370;2023-05-13T12:07:58;98424.41;;;20.80;48.18
18858;BME280;9558;50.178;8.370;2023-05-13T12:10:45;98420.22;;;20.67;49.44
18858;BME280;9558;50.178;8.370;2023-05-13T12:13:32;98431.44;;;20.50;48.55
18858;BME280;9558;50.178;8.370;2023-05-13T12:16:19;98427.94;;;20.33;48.87
18858;BME280;9558;50.178;8.370;2023-05-13T12:19:07;98418.25;;;20.22;49.23
18858;BME280;9558;50.178;8.370;2023-05-13T12:21:53;98423.69;;;20.32;49.92
18858;BME280;9558;50.178;8.370;2023-05-13T12:24:40;98415.16;;;20.36;50.43
18858;BME280;9558;50.178;8.370;2023-05-13T12:27:27;98416.00;;;20.54;50.91
18858;BME280;9558;50.178;8.370;2023-05-13T12:30:14;98415.50;;;20.69;50.07
18858;BME280;9558;50.178;8.370;2023-05-13T12:33:01;98417.28;;;20.80;50.55
18858;BME280;9558;50.178;8.370;2023-05-13T12:35:51;98415.25;;;20.82;49.84
18858;BME280;9558;50.178;8.370;2023-05-13T12:38:39;98411.09;;;20.86;49.52
18858;BME280;9558;50.178;8.370;2023-05-13T12:41:27;98414.38;;;20.94;48.73
18858;BME280;9558;50.178;8.370;2023-05-13T12:44:15;98416.91;;;20.88;48.24
18858;BME280;9558;50.178;8.370;2023-05-13T12:47:02;98418.03;;;20.93;49.40
18858;BME280;9558;50.178;8.370;2023-05-13T12:49:51;98419.41;;;20.95;50.09
18858;BME280;9558;50.178;8.370;2023-05-13T12:52:40;98424.81;;;20.88;49.67
18858;BME280;9558;50.178;8.370;2023-05-13T12:55:26;98440.03;;;20.86;49.21
18858;BME280;9558;50.178;8.370;2023-05-13T12:58:13;98458.63;;;20.68;46.95
18858;BME280;9558;50.178;8.370;2023-05-13T13:01:00;98510.97;;;20.58;49.45
18858;BME280;9558;50.178;8.370;2023-05-13T13:03:47;98495.50;;;20.20;50.83
18858;BME280;9558;50.178;8.370;2023-05-13T13:06:33;98494.13;;;19.82;54.79
18858;BME280;9558;50.178;8.370;2023-05-13T13:09:22;98505.91;;;19.49;53.57
18858;BME280;9558;50.178;8.370;2023-05-13T13:12:08;98519.47;;;19.16;57.17
18858;BME280;9558;50.178;8.370;2023-05-13T13:14:55;98542.25;;;18.85;59.68
18858;BME280;9558;50.178;8.370;2023-05-13T13:17:42;98538.53;;;18.56;62.45
18858;BME280;9558;50.178;8.370;2023-05-13T13:20:29;98531.66;;;18.18;67.84
18858;BME280;9558;50.178;8.370;2023-05-13T13:23:15;98548.81;;;17.82;68.37
18858;BME280;9558;50.178;8.370;2023-05-13T13:26:04;98530.72;;;17.48;69.61
18858;BME280;9558;50.178;8.370;2023-05-13T13:28:51;98501.72;;;17.18;71.90
18858;BME280;9558;50.178;8.370;2023-05-13T13:31:38;98471.88;;;16.87;72.84
18858;BME280;9558;50.178;8.370;2023-05-13T13:34:24;98451.69;;;16.62;75.12
18858;BME280;9558;50.178;8.370;2023-05-13T13:37:11;98455.94;;;16.43;76.96
18858;BME280;9558;50.178;8.370;2023-05-13T13:39:58;98448.78;;;16.25;78.88
18858;BME280;9558;50.178;8.370;2023-05-13T13:42:46;98448.19;;;16.10;89.75
18858;BME280;9558;50.178;8.370;2023-05-13T13:45:33;98449.41;;;16.07;82.18
18858;BME280;9558;50.178;8.370;2023-05-13T13:48:20;98435.16;;;16.10;82.09
18858;BME280;9558;50.178;8.370;2023-05-13T13:51:07;98426.06;;;16.19;83.18
18858;BME280;9558;50.178;8.370;2023-05-13T13:53:53;98427.25;;;16.30;84.70
18858;BME280;9558;50.178;8.370;2023-05-13T13:56:41;98420.41;;;16.35;86.32
18858;BME280;9558;50.178;8.370;2023-05-13T13:59:29;98422.59;;;16.38;86.50
18858;BME280;9558;50.178;8.370;2023-05-13T14:02:16;98421.38;;;16.48;87.21
18858;BME280;9558;50.178;8.370;2023-05-13T14:05:03;98418.50;;;16.56;87.72
18858;BME280;9558;50.178;8.370;2023-05-13T14:07:50;98421.91;;;16.63;88.17
18858;BME280;9558;50.178;8.370;2023-05-13T14:10:38;98422.06;;;16.75;88.61
18858;BME280;9558;50.178;8.370;2023-05-13T14:13:25;98414.59;;;16.79;90.12
18858;BME280;9558;50.178;8.370;2023-05-13T14:16:13;98416.97;;;16.87;98.30
18858;BME280;9558;50.178;8.370;2023-05-13T14:19:00;98409.72;;;16.96;91.88
18858;BME280;9558;50.178;8.370;2023-05-13T14:21:47;98417.66;;;17.07;97.56
18858;BME280;9558;50.178;8.370;2023-05-13T14:24:33;98415.56;;;17.23;91.42
18858;BME280;9558;50.178;8.370;2023-05-13T14:27:20;98421.56;;;17.30;86.22
18858;BME280;9558;50.178;8.370;2023-05-13T14:30:09;98421.06;;;17.40;86.16
18858;BME280;9558;50.178;8.370;2023-05-13T14:32:57;98427.44;;;17.51;84.39
18858;BME280;9558;50.178;8.370;2023-05-13T14:35:45;98421.34;;;17.57;79.93
18858;BME280;9558;50.178;8.370;2023-05-13T14:38:31;98433.22;;;17.59;73.29
18858;BME280;9558;50.178;8.370;2023-05-13T14:41:18;98426.38;;;17.58;73.35
18858;BME280;9558;50.178;8.370;2023-05-13T14:44:07;98426.16;;;17.60;71.60
18858;BME280;9558;50.178;8.370;2023-05-13T14:46:53;98428.19;;;17.58;70.36
18858;BME280;9558;50.178;8.370;2023-05-13T14:49:42;98422.97;;;17.58;72.67
18858;BME280;9558;50.178;8.370;2023-05-13T14:52:28;98415.25;;;17.63;75.39
18858;BME280;9558;50.178;8.370;2023-05-13T14:55:15;98412.97;;;17.73;76.06
18858;BME280;9558;50.178;8.370;2023-05-13T14:58:02;98415.66;;;17.85;74.76
18858;BME280;9558;50.178;8.370;2023-05-13T15:00:49;98418.03;;;17.93;73.10